KATW/ATW METAR and TAF weather

Enter ICAO airport designator
Station Type Date Time Source
KATW METAR 2022/01/19 19:45 UTC NOAA

KATW 191945Z 31015G21KT 10SM SCT032 M09/M18 A3009


Station Type Date Time Source
KATW Decoded METAR 2022/01/19 19:45 UTC NOAA

Appleton / Outagamie, WI, United States (KATW) 44-15N 088-31W
Jan 19, 2022 - 02:45 PM EST / 2022.01.19 1945 UTC
Wind: from the NW (310 degrees) at 17 MPH (15 KT) gusting to 24 MPH (21 KT):0
Visibility: 10 mile(s):0
Sky conditions: partly cloudy
Temperature: 15 F (-9 C)
Windchill: 0 F (-18 C):1
Dew Point: 0 F (-18 C)
Relative Humidity: 48%
Pressure (altimeter): 30.09 in. Hg (1018 hPa)
ob: KATW 191945Z 31015G21KT 10SM SCT032 M09/M18 A3009
cycle: 20

Station Type Date Time Source
KATW TAF 2022/01/19 18:22 UTC NOAA

TAF KATW 191720Z 1918/2018 29017G24KT P6SM SCT035
FM192200 32010G17KT P6SM SCT040
FM200100 32008KT P6SM SCT045

Example: see airport list